Time;durP1;ratioP1;P1;durP2;ratioP2;P2;SDS_P1;SDS_P2;PMS_P1;PMS_P2;Temp;Humidity;BMP_temperature;BMP_pressure;BME280_temperature;BME280_humidity;BME280_pressure;Samples;Min_cycle;Max_cycle;Signal;HPM_P1;HPM_P2
2022/08/14 00:01:03;;;;;;;;;6.67;6.67;;;;;26.37;33.52;100549.50;5060462;28;59777;-70
2022/08/14 00:03:30;;;;;;;;;6.67;6.67;;;;;26.36;33.47;100545.00;5055943;28;45402;-72
2022/08/14 00:05:57;;;;;;;;;7.00;7.00;;;;;26.29;33.34;100530.09;5044813;28;47685;-70
2022/08/14 00:08:23;;;;;;;;;6.67;6.67;;;;;26.25;34.26;100523.13;5078957;28;45472;-71
2022/08/14 00:10:49;;;;;;;;;5.00;5.00;;;;;26.27;33.53;100525.75;5078987;28;45297;-73
2022/08/14 00:13:17;;;;;;;;;6.00;6.00;;;;;26.19;34.39;100511.78;5068501;28;45369;-70
2022/08/14 00:15:45;;;;;;;;;6.00;6.00;;;;;26.18;34.14;100519.03;5077356;28;46143;-69
2022/08/14 00:18:13;;;;;;;;;7.67;7.67;;;;;26.19;33.90;100526.19;5079112;28;45392;-69
2022/08/14 00:20:40;;;;;;;;;11.00;6.00;;;;;26.16;33.82;100512.00;5078749;28;45572;-69
2022/08/14 00:23:07;;;;;;;;;7.33;7.33;;;;;26.05;33.83;100497.25;5075336;28;45409;-72
2022/08/14 00:25:32;;;;;;;;;6.67;6.33;;;;;26.08;34.27;100499.75;5058888;28;47874;-71
2022/08/14 00:27:58;;;;;;;;;7.00;7.00;;;;;26.05;34.13;100499.09;5061553;28;45355;-69
2022/08/14 00:30:23;;;;;;;;;8.67;7.00;;;;;26.06;34.20;100503.53;5069287;28;45532;-69
2022/08/14 00:32:48;;;;;;;;;7.00;7.00;;;;;26.04;33.94;100497.31;5040354;28;57466;-69
2022/08/14 00:35:14;;;;;;;;;5.67;5.33;;;;;26.02;34.60;100497.41;5058391;28;66271;-69
2022/08/14 00:37:41;;;;;;;;;7.67;6.00;;;;;26.00;34.62;100490.38;5064796;28;53206;-69
2022/08/14 00:40:08;;;;;;;;;6.00;6.00;;;;;25.99;34.19;100491.31;5073381;28;45468;-69
2022/08/14 00:42:34;;;;;;;;;6.67;5.00;;;;;25.97;34.43;100488.69;5058800;28;45429;-71
2022/08/14 00:44:59;;;;;;;;;5.00;5.00;;;;;25.83;34.21;100458.88;5058263;28;55134;-74
2022/08/14 00:47:25;;;;;;;;;6.00;6.00;;;;;25.93;34.12;100478.16;5058240;28;68598;-72
2022/08/14 00:49:52;;;;;;;;;6.00;6.00;;;;;25.80;34.13;100459.06;5057680;28;61841;-70
2022/08/14 00:52:18;;;;;;;;;7.00;7.00;;;;;25.91;34.14;100474.66;5068800;28;45608;-73
2022/08/14 00:54:45;;;;;;;;;6.67;5.33;;;;;25.91;34.84;100480.06;5056634;28;45664;-69
2022/08/14 00:57:11;;;;;;;;;8.33;6.00;;;;;25.90;34.41;100478.34;5058628;28;45522;-71
2022/08/14 00:59:36;;;;;;;;;5.00;5.00;;;;;25.88;34.66;100470.28;5059855;28;62214;-69
2022/08/14 01:02:02;;;;;;;;;6.33;5.00;;;;;25.91;34.75;100470.13;5078628;28;45447;-70
2022/08/14 01:04:32;;;;;;;;;5.00;5.00;;;;;25.86;34.27;100459.56;5059533;28;46401;-74
2022/08/14 01:06:59;;;;;;;;;6.33;6.00;;;;;25.89;34.80;100469.34;5074582;28;45499;-72
2022/08/14 01:09:24;;;;;;;;;6.00;6.00;;;;;25.86;34.89;100467.69;5060067;28;45495;-69
2022/08/14 01:11:51;;;;;;;;;5.33;5.33;;;;;25.85;34.34;100465.94;5077544;28;59345;-69
2022/08/14 01:14:17;;;;;;;;;5.00;5.00;;;;;25.83;34.56;100448.94;5059726;28;46592;-73
2022/08/14 01:16:43;;;;;;;;;6.00;5.00;;;;;25.78;34.40;100437.53;5077634;28;45444;-71
2022/08/14 01:21:52;;;;;;;;;4.00;4.00;;;;;25.77;35.15;100432.19;5076689;28;45539;-70
2022/08/14 01:24:20;;;;;;;;;6.00;5.33;;;;;25.77;34.63;100426.78;5047225;28;61267;-69
2022/08/14 01:26:45;;;;;;;;;4.00;4.00;;;;;25.76;34.99;100427.75;5058350;28;45480;-70
2022/08/14 01:29:12;;;;;;;;;5.00;5.00;;;;;25.76;35.38;100431.31;5057400;28;45282;-70
2022/08/14 01:31:51;;;;;;;;;5.00;3.00;;;;;25.74;34.97;100426.94;5068360;28;45275;-72
2022/08/14 01:34:19;;;;;;;;;3.67;3.67;;;;;25.77;34.69;100434.88;5060338;28;46573;-73
2022/08/14 01:36:44;;;;;;;;;5.00;4.67;;;;;25.71;34.66;100425.25;5076126;28;45563;-69
2022/08/14 01:39:15;;;;;;;;;6.33;5.00;;;;;25.76;34.50;100441.25;5058282;28;45219;-70
2022/08/14 01:41:42;;;;;;;;;7.00;5.67;;;;;25.75;35.00;100444.94;5058115;28;45321;-70
2022/08/14 01:44:12;;;;;;;;;5.00;4.00;;;;;25.70;34.67;100437.06;5070119;28;47487;-70
2022/08/14 01:46:39;;;;;;;;;6.67;4.33;;;;;25.63;34.98;100424.84;5069749;28;45269;-71
2022/08/14 01:49:08;;;;;;;;;5.67;5.00;;;;;25.69;34.62;100438.03;5050827;28;45436;-71
2022/08/14 01:51:35;;;;;;;;;4.33;4.33;;;;;25.68;35.24;100435.41;5059831;28;45544;-69
2022/08/14 01:54:05;;;;;;;;;7.00;5.00;;;;;25.71;35.42;100440.63;5058054;28;46623;-69
2022/08/14 01:56:36;;;;;;;;;5.00;5.00;;;;;25.72;34.69;100437.81;5063522;28;45565;-69
2022/08/14 01:59:04;;;;;;;;;4.67;4.67;;;;;25.67;34.79;100425.53;5077277;28;45441;-69
2022/08/14 02:01:29;;;;;;;;;5.00;4.00;;;;;25.69;34.66;100429.91;5066411;28;45484;-69
2022/08/14 02:03:55;;;;;;;;;2.67;2.67;;;;;25.59;35.27;100418.75;5075043;28;74595;-70
2022/08/14 02:06:21;;;;;;;;;4.00;4.00;;;;;25.66;35.33;100427.38;5076848;28;45395;-69
2022/08/14 02:08:46;;;;;;;;;5.67;4.00;;;;;25.61;35.39;100427.63;5056880;28;64365;-71
2022/08/14 02:11:21;;;;;;;;;3.33;3.33;;;;;25.64;35.58;100431.13;5057669;28;45490;-71
2022/08/14 02:13:59;;;;;;;;;4.67;4.67;;;;;25.56;34.87;100410.78;5074150;28;46056;-73
2022/08/14 02:16:28;;;;;;;;;5.00;3.33;;;;;25.49;35.11;100398.59;5076906;28;45305;-70
2022/08/14 02:18:56;;;;;;;;;3.00;3.00;;;;;25.56;35.39;100409.94;5077076;28;45434;-69
2022/08/14 02:21:22;;;;;;;;;6.00;3.00;;;;;25.55;35.15;100406.34;5077171;28;45606;-69
2022/08/14 02:23:49;;;;;;;;;5.00;5.00;;;;;25.55;35.16;100402.78;5042704;28;45612;-70
2022/08/14 02:26:20;;;;;;;;;3.67;3.67;;;;;25.54;35.07;100396.50;5056869;28;45316;-71
2022/08/14 02:28:48;;;;;;;;;4.00;4.00;;;;;25.53;35.89;100397.47;5056573;28;45353;-69
2022/08/14 02:31:13;;;;;;;;;5.00;5.00;;;;;25.53;35.40;100392.06;5060823;28;45296;-74
2022/08/14 02:33:40;;;;;;;;;5.00;5.00;;;;;25.49;35.42;100384.22;5068776;28;45932;-69
2022/08/14 02:36:07;;;;;;;;;6.33;6.33;;;;;25.51;35.68;100388.56;5060892;28;45599;-69
2022/08/14 02:38:32;;;;;;;;;4.00;4.00;;;;;25.49;35.23;100368.00;5058991;28;45521;-70
2022/08/14 02:40:58;;;;;;;;;6.00;5.00;;;;;25.49;35.36;100366.16;5076765;28;45162;-69
2022/08/14 02:43:23;;;;;;;;;4.00;4.00;;;;;25.49;35.78;100366.16;5063028;28;45896;-71
2022/08/14 02:45:49;;;;;;;;;5.00;4.00;;;;;25.49;36.07;100366.16;5074071;28;45266;-69
2022/08/14 02:48:14;;;;;;;;;4.67;4.67;;;;;25.46;36.05;100355.56;5057333;28;58491;-71
2022/08/14 02:50:40;;;;;;;;;4.33;4.33;;;;;25.54;35.78;100371.31;5057341;28;45576;-72
2022/08/14 02:53:06;;;;;;;;;6.00;4.67;;;;;25.51;35.53;100366.06;5057752;28;47330;-70
2022/08/14 02:55:31;;;;;;;;;4.00;4.00;;;;;25.53;35.95;100364.16;5056878;28;45464;-69
2022/08/14 02:57:57;;;;;;;;;4.00;4.00;;;;;25.48;35.33;100360.84;5057178;28;45374;-69
2022/08/14 03:00:22;;;;;;;;;4.00;4.00;;;;;25.52;35.76;100357.88;5068769;28;45416;-69
2022/08/14 03:02:49;;;;;;;;;5.00;5.00;;;;;25.50;36.30;100357.09;5073372;28;70211;-71
2022/08/14 03:05:16;;;;;;;;;5.00;5.00;;;;;25.48;36.27;100360.84;5075993;28;45285;-70
2022/08/14 03:07:42;;;;;;;;;4.00;4.00;;;;;25.49;36.11;100358.06;5064830;28;45513;-69
2022/08/14 03:10:09;;;;;;;;;5.00;5.00;;;;;25.49;36.20;100366.16;5059216;28;45593;-73
2022/08/14 03:12:34;;;;;;;;;6.00;6.00;;;;;25.47;35.71;100365.41;5076180;28;46363;-70
2022/08/14 03:15:05;;;;;;;;;5.67;5.67;;;;;25.42;36.44;100351.28;5058554;28;45389;-69
2022/08/14 03:17:30;;;;;;;;;7.00;5.67;;;;;25.42;35.80;100356.69;5076015;28;45530;-72
2022/08/14 03:19:56;;;;;;;;;5.00;4.33;;;;;25.42;35.94;100353.09;5068702;28;45400;-69
2022/08/14 03:22:21;;;;;;;;;4.67;4.67;;;;;25.45;36.51;100364.59;5057286;28;67030;-73
2022/08/14 03:24:46;;;;;;;;;7.00;7.00;;;;;25.40;36.33;100358.59;5069227;28;68371;-71
2022/08/14 03:27:12;;;;;;;;;7.67;6.33;;;;;25.43;36.18;100360.25;5056380;28;45214;-72
2022/08/14 03:29:39;;;;;;;;;5.33;5.00;;;;;25.33;36.54;100349.97;5056152;28;45314;-72
2022/08/14 03:32:05;;;;;;;;;5.33;5.33;;;;;25.38;35.84;100351.53;5055512;28;46365;-70
2022/08/14 03:34:30;;;;;;;;;5.00;5.00;;;;;25.41;36.55;100357.66;5074422;28;45454;-69
2022/08/14 03:36:57;;;;;;;;;6.00;6.00;;;;;25.41;36.37;100354.94;5073672;28;63368;-71
2022/08/14 03:39:22;;;;;;;;;7.00;7.00;;;;;25.36;36.66;100350.78;5058359;28;45547;-70
2022/08/14 03:41:52;;;;;;;;;7.00;7.00;;;;;25.37;36.00;100358.78;5066964;28;46485;-69
2022/08/14 03:44:18;;;;;;;;;6.33;6.33;;;;;25.39;36.35;100354.16;5063363;28;45523;-70
2022/08/14 03:46:43;;;;;;;;;6.00;5.00;;;;;25.34;36.34;100343.59;5078226;28;45393;-73
2022/08/14 03:49:09;;;;;;;;;6.33;6.33;;;;;25.32;36.08;100348.22;5079093;28;48208;-71
2022/08/14 03:51:35;;;;;;;;;8.67;7.00;;;;;25.34;36.82;100364.34;5078858;28;65519;-69
2022/08/14 03:54:03;;;;;;;;;6.33;6.33;;;;;25.32;36.35;100358.16;5074523;28;45473;-72
2022/08/14 03:56:28;;;;;;;;;8.67;7.00;;;;;25.31;36.30;100365.41;5079453;28;45308;-69
2022/08/14 03:58:59;;;;;;;;;10.00;7.67;;;;;25.30;36.84;100360.06;5079181;28;45355;-71
2022/08/14 04:01:25;;;;;;;;;6.33;6.33;;;;;25.34;36.29;100375.16;5078975;28;45397;-71
2022/08/14 04:03:53;;;;;;;;;5.00;5.00;;;;;25.33;36.95;100377.00;5079321;28;45503;-70
2022/08/14 04:06:19;;;;;;;;;6.33;6.33;;;;;25.27;36.39;100380.06;5077683;28;45395;-70
2022/08/14 04:08:45;;;;;;;;;7.00;7.00;;;;;25.26;36.79;100378.31;5059432;28;45408;-73
2022/08/14 04:11:11;;;;;;;;;6.00;6.00;;;;;25.26;36.25;100377.44;5072244;28;66902;-69
2022/08/14 04:13:39;;;;;;;;;6.00;6.00;;;;;25.26;37.06;100381.00;5078513;28;45501;-70
2022/08/14 04:16:10;;;;;;;;;8.00;6.00;;;;;25.24;37.11;100379.34;5077590;28;45224;-70
2022/08/14 04:18:41;;;;;;;;;6.33;6.33;;;;;25.22;36.40;100383.97;5079427;28;45460;-73
2022/08/14 04:21:07;;;;;;;;;7.33;6.00;;;;;25.25;36.88;100391.94;5067569;28;47547;-69
2022/08/14 04:23:32;;;;;;;;;8.33;5.67;;;;;25.20;36.82;100375.97;5070113;28;45486;-70
2022/08/14 04:25:59;;;;;;;;;5.67;5.67;;;;;25.18;36.84;100371.59;5077296;28;65184;-68
2022/08/14 04:28:25;;;;;;;;;5.00;5.00;;;;;25.19;37.21;100373.31;5078899;28;45301;-69
2022/08/14 04:30:50;;;;;;;;;6.33;6.33;;;;;25.13;37.31;100371.84;5071087;28;47527;-69
2022/08/14 04:33:16;;;;;;;;;6.00;6.00;;;;;25.13;36.75;100374.56;5053610;28;59993;-71
2022/08/14 04:35:41;;;;;;;;;5.33;5.33;;;;;25.16;37.26;100390.59;5059108;28;45357;-69
2022/08/14 04:43:36;;;;;;;;;5.33;5.33;;;;;25.13;37.59;100371.84;5078722;28;45529;-71
2022/08/14 04:46:07;;;;;;;;;7.67;6.00;;;;;25.02;37.48;100364.31;5060342;28;45225;-70
2022/08/14 04:48:32;;;;;;;;;6.33;6.33;;;;;25.11;37.64;100354.00;5058923;28;45515;-69
2022/08/14 04:50:58;;;;;;;;;6.67;6.67;;;;;25.01;37.88;100332.88;5057614;28;46421;-70
2022/08/14 04:53:27;;;;;;;;;6.00;6.00;;;;;25.08;37.55;100347.78;5058576;28;45368;-72
2022/08/14 04:55:53;;;;;;;;;7.33;7.33;;;;;25.05;37.82;100338.97;5058609;28;45294;-69
2022/08/14 04:58:21;;;;;;;;;8.00;7.00;;;;;25.08;37.94;100346.91;5058719;28;45433;-69
2022/08/14 05:00:49;;;;;;;;;6.00;6.00;;;;;25.08;38.04;100336.13;5058374;28;47173;-69
2022/08/14 05:03:19;;;;;;;;;6.00;6.00;;;;;25.04;37.96;100331.84;5059341;28;45372;-71
2022/08/14 05:05:53;;;;;;;;;7.67;5.33;;;;;25.07;37.94;100339.78;5058599;28;45200;-71
2022/08/14 05:08:18;;;;;;;;;11.00;7.00;;;;;25.01;37.44;100313.09;5060517;28;45476;-68
2022/08/14 05:10:47;;;;;;;;;8.00;6.33;;;;;25.10;38.14;100327.94;5058406;28;47436;-71
2022/08/14 05:13:13;;;;;;;;;7.00;7.00;;;;;25.06;38.02;100319.13;5040369;28;45709;-68
2022/08/14 05:15:39;;;;;;;;;8.00;8.00;;;;;25.10;38.08;100314.44;5073678;28;45435;-68
2022/08/14 05:18:12;;;;;;;;;5.67;5.67;;;;;25.06;37.87;100308.31;5078091;28;45452;-69
2022/08/14 05:20:45;;;;;;;;;7.00;5.00;;;;;25.10;38.31;100323.41;5078178;28;45739;-71
2022/08/14 05:23:13;;;;;;;;;6.00;6.00;;;;;25.11;37.99;100335.94;5067277;28;45487;-72
2022/08/14 05:25:38;;;;;;;;;6.33;6.33;;;;;25.13;37.65;100339.44;5058257;28;45326;-68
2022/08/14 05:28:17;;;;;;;;;9.00;6.00;;;;;25.13;38.12;100336.72;5058134;28;45611;-71
2022/08/14 05:30:47;;;;;;;;;8.00;5.00;;;;;25.14;37.77;100354.72;5051981;28;46531;-69
2022/08/14 05:33:15;;;;;;;;;7.00;6.33;;;;;25.16;38.18;100351.91;5057834;28;45623;-71
2022/08/14 05:35:40;;;;;;;;;6.00;6.00;;;;;25.12;37.80;100326.00;5067435;28;45473;-69
2022/08/14 05:38:08;;;;;;;;;6.00;6.00;;;;;25.13;38.40;100333.16;5069295;28;45392;-71
2022/08/14 05:40:34;;;;;;;;;7.00;6.33;;;;;25.16;38.29;100341.09;5077555;28;46757;-72
2022/08/14 05:42:59;;;;;;;;;7.33;7.33;;;;;25.15;38.51;100342.94;5077597;28;45830;-70
2022/08/14 05:45:25;;;;;;;;;7.00;7.00;;;;;25.14;38.31;100338.50;5064497;28;45191;-73
2022/08/14 05:47:50;;;;;;;;;9.33;7.67;;;;;25.12;38.14;100335.00;5054702;28;45662;-69
2022/08/14 05:50:16;;;;;;;;;7.33;7.33;;;;;25.11;38.72;100324.28;5058793;28;46134;-69
2022/08/14 05:52:41;;;;;;;;;8.00;8.00;;;;;25.08;38.56;100309.97;5056541;28;45758;-71
2022/08/14 05:55:09;;;;;;;;;7.67;7.00;;;;;25.07;38.32;100299.25;5066252;28;58503;-70
2022/08/14 05:57:52;;;;;;;;;7.00;7.00;;;;;25.06;38.92;100309.19;5074151;28;45457;-69
2022/08/14 06:00:20;;;;;;;;;8.67;7.00;;;;;24.98;38.79;100299.75;5058937;28;46468;-71
2022/08/14 06:02:46;;;;;;;;;7.00;7.00;;;;;25.04;38.97;100324.59;5056301;28;45671;-70
2022/08/14 06:05:11;;;;;;;;;6.00;6.00;;;;;25.00;38.82;100312.22;5058037;28;54638;-71
2022/08/14 06:07:37;;;;;;;;;6.00;6.00;;;;;24.92;38.74;100292.88;5053832;28;45389;-70
2022/08/14 06:10:04;;;;;;;;;7.00;6.00;;;;;24.91;38.94;100311.88;5036155;28;46594;-70
2022/08/14 06:12:30;;;;;;;;;8.00;7.00;;;;;24.94;38.83;100307.16;5059919;28;45290;-73
2022/08/14 06:14:55;;;;;;;;;5.67;5.67;;;;;24.96;39.22;100326.84;5055551;28;45471;-70
2022/08/14 06:17:20;;;;;;;;;7.00;7.00;;;;;24.96;39.48;100332.25;5062240;28;45521;-70
2022/08/14 06:19:46;;;;;;;;;9.00;7.00;;;;;24.96;38.98;100302.53;5056105;28;70006;-70
2022/08/14 06:22:11;;;;;;;;;8.67;7.00;;;;;24.93;39.64;100288.31;5058941;28;61181;-70
2022/08/14 06:24:36;;;;;;;;;8.00;7.00;;;;;24.94;38.93;100333.31;5058238;28;62785;-71
2022/08/14 06:27:03;;;;;;;;;6.00;6.00;;;;;24.91;38.88;100295.66;5052749;28;59888;-68
2022/08/14 06:29:28;;;;;;;;;6.00;6.00;;;;;24.94;38.96;100306.31;5063767;28;46394;-70
2022/08/14 06:31:53;;;;;;;;;8.00;6.33;;;;;24.95;39.47;100305.34;5054308;28;66373;-72
2022/08/14 06:34:19;;;;;;;;;12.33;7.33;;;;;24.93;39.69;100310.84;5068124;28;60760;-69
2022/08/14 06:36:44;;;;;;;;;9.00;7.33;;;;;24.94;38.94;100306.31;5070445;28;51491;-69
2022/08/14 06:39:09;;;;;;;;;7.00;7.00;;;;;24.93;39.75;100318.94;5056255;28;47273;-68
2022/08/14 06:41:35;;;;;;;;;8.33;7.00;;;;;24.90;39.88;100308.28;5067198;28;60996;-69
2022/08/14 06:44:00;;;;;;;;;10.00;9.00;;;;;24.92;39.84;100316.31;5064616;28;59285;-68
2022/08/14 06:46:28;;;;;;;;;7.00;7.00;;;;;24.90;39.50;100313.69;5068971;28;57630;-71
2022/08/14 06:48:53;;;;;;;;;9.33;8.00;;;;;24.87;39.34;100307.59;5065678;28;46580;-71
2022/08/14 06:51:19;;;;;;;;;7.33;7.33;;;;;24.92;39.66;100327.97;5059597;28;61159;-68
2022/08/14 06:53:45;;;;;;;;;7.33;7.33;;;;;24.90;40.26;100321.81;5070560;28;45455;-69
2022/08/14 06:56:12;;;;;;;;;8.00;8.00;;;;;24.94;39.75;100331.47;5071595;28;45447;-69
2022/08/14 06:58:37;;;;;;;;;11.33;9.00;;;;;24.98;40.25;100329.47;5061381;28;46822;-68
2022/08/14 07:06:31;;;;;;;;;8.00;8.00;;;;;25.14;40.85;100329.50;5056190;28;45344;-71
2022/08/14 07:08:56;;;;;;;;;7.67;7.67;;;;;25.19;40.51;100330.97;5069618;28;72715;-71
2022/08/14 07:11:21;;;;;;;;;8.33;8.33;;;;;25.20;40.82;100334.56;5071239;28;55981;-70
2022/08/14 07:13:47;;;;;;;;;9.67;8.67;;;;;25.16;40.89;100323.06;5070863;28;61184;-72
2022/08/14 07:16:12;;;;;;;;;8.00;7.00;;;;;25.29;41.24;100332.19;5060278;28;58526;-70
2022/08/14 07:18:38;;;;;;;;;6.00;4.67;;;;;25.28;41.76;100318.75;5065074;28;71603;-70
2022/08/14 07:21:05;;;;;;;;;9.67;8.67;;;;;25.36;41.33;100321.91;5064360;28;45433;-71
2022/08/14 07:23:31;;;;;;;;;8.00;6.67;;;;;25.39;40.79;100321.72;5172546;22;46407;-70
2022/08/14 07:25:58;;;;;;;;;8.33;7.00;;;;;25.47;40.47;100335.66;5011635;28;46509;-69
2022/08/14 07:28:26;;;;;;;;;7.33;7.33;;;;;25.53;39.79;100335.28;5011052;28;46363;-73
2022/08/14 07:30:56;;;;;;;;;6.67;6.67;;;;;25.60;39.64;100333.09;5014958;28;45296;-69
2022/08/14 07:33:23;;;;;;;;;5.00;5.00;;;;;25.72;38.96;100343.16;5012058;28;45485;-71
2022/08/14 07:35:51;;;;;;;;;7.33;6.00;;;;;25.76;38.95;100336.66;5012136;28;45531;-69
2022/08/14 07:38:19;;;;;;;;;5.00;5.00;;;;;25.88;38.88;100335.03;5013718;28;45605;-72
2022/08/14 07:40:44;;;;;;;;;6.00;6.00;;;;;25.92;37.94;100330.31;4997504;28;45504;-71
2022/08/14 07:43:10;;;;;;;;;6.67;5.33;;;;;26.01;38.44;100324.38;5014030;28;57742;-71
2022/08/14 07:45:35;;;;;;;;;5.00;5.00;;;;;26.06;37.72;100327.66;5012380;28;45692;-68
2022/08/14 07:48:01;;;;;;;;;6.00;6.00;;;;;26.16;37.75;100352.31;5011086;28;45490;-71
2022/08/14 07:50:26;;;;;;;;;6.00;6.00;;;;;26.20;37.14;100346.59;5013067;28;53461;-70
2022/08/14 07:52:51;;;;;;;;;5.00;4.67;;;;;26.20;37.73;100341.19;5008940;28;55510;-70
2022/08/14 07:55:18;;;;;;;;;5.00;5.00;;;;;26.19;37.47;100334.03;4997937;28;47314;-68
2022/08/14 07:57:44;;;;;;;;;5.67;5.67;;;;;26.16;37.30;100322.56;5005458;28;46777;-70
2022/08/14 08:00:15;;;;;;;;;5.00;5.00;;;;;26.18;37.68;100309.78;5009033;28;45512;-69
2022/08/14 08:02:43;;;;;;;;;6.00;5.00;;;;;26.13;37.46;100293.84;5009550;28;45663;-70
2022/08/14 08:05:09;;;;;;;;;6.33;5.00;;;;;26.18;37.07;100305.25;5009776;28;45825;-71
2022/08/14 08:07:36;;;;;;;;;5.33;5.33;;;;;26.13;36.98;100308.22;5009181;28;45735;-72
2022/08/14 08:13:11;;;;;;;;;5.00;5.00;;;;;26.15;37.37;100323.50;5006468;28;45490;-72
2022/08/14 08:15:41;;;;;;;;;5.00;5.00;;;;;26.12;37.08;100325.44;5007899;28;45514;-70
2022/08/14 08:18:09;;;;;;;;;5.67;4.33;;;;;26.09;37.37;100317.50;5008354;28;46139;-71
2022/08/14 08:20:38;;;;;;;;;9.00;5.67;;;;;26.10;37.27;100311.13;5008494;28;45587;-71
2022/08/14 08:23:05;;;;;;;;;5.33;5.33;;;;;26.16;37.82;100326.13;5011005;28;45521;-70
2022/08/14 08:25:33;;;;;;;;;8.67;7.67;;;;;26.19;37.59;100334.03;5006660;28;45524;-75
2022/08/14 08:28:02;;;;;;;;;8.00;6.00;;;;;26.24;37.74;100328.34;5012876;28;46505;-71
2022/08/14 08:30:30;;;;;;;;;8.00;6.00;;;;;26.25;36.88;100328.25;5013683;28;45553;-72
2022/08/14 08:32:57;;;;;;;;;5.00;5.00;;;;;26.31;37.11;100336.00;5012342;28;45850;-70
2022/08/14 08:35:28;;;;;;;;;6.00;6.00;;;;;26.38;37.19;100329.22;5009965;28;45592;-74
2022/08/14 08:37:59;;;;;;;;;6.67;5.67;;;;;26.46;36.90;100333.31;5009002;28;46150;-72
2022/08/14 08:40:27;;;;;;;;;4.67;4.67;;;;;26.53;36.56;100327.44;4994193;28;45505;-73
2022/08/14 08:42:53;;;;;;;;;4.33;4.33;;;;;26.62;36.75;100329.53;5010284;28;45459;-73
2022/08/14 08:45:20;;;;;;;;;5.67;5.67;;;;;26.78;36.77;100339.41;5012000;28;45998;-72
2022/08/14 08:47:46;;;;;;;;;3.00;3.00;;;;;26.82;36.04;100330.97;5012443;28;47437;-73
2022/08/14 08:50:26;;;;;;;;;6.33;5.00;;;;;26.90;36.16;100330.50;5007465;28;45614;-72
2022/08/14 08:52:53;;;;;;;;;5.00;5.00;;;;;26.96;36.03;100338.22;5008824;28;45449;-73
2022/08/14 08:55:31;;;;;;;;;5.00;5.00;;;;;26.99;36.39;100338.00;5011341;28;45562;-71
2022/08/14 08:58:03;;;;;;;;;7.33;6.00;;;;;27.01;36.84;100319.81;5014092;28;45461;-72
2022/08/14 09:00:32;;;;;;;;;6.00;6.00;;;;;27.15;37.17;100327.06;5014741;28;45451;-71
2022/08/14 09:03:02;;;;;;;;;9.00;7.00;;;;;27.17;37.38;100317.00;5013924;28;45411;-72
2022/08/14 09:05:28;;;;;;;;;7.00;7.00;;;;;27.24;38.15;100307.50;5013843;28;45550;-71
2022/08/14 09:07:53;;;;;;;;;7.33;7.33;;;;;27.34;38.13;100313.16;5012960;28;48022;-71
2022/08/14 09:10:19;;;;;;;;;7.00;7.00;;;;;27.45;38.25;100316.03;5013367;28;45432;-72
2022/08/14 09:12:45;;;;;;;;;8.33;8.33;;;;;27.53;38.64;100296.50;5013897;28;50090;-71
2022/08/14 09:15:10;;;;;;;;;8.67;8.67;;;;;27.64;38.71;100300.22;5014506;28;45461;-71
2022/08/14 09:17:36;;;;;;;;;6.00;6.00;;;;;27.79;39.62;100311.91;5012467;28;65978;-72
2022/08/14 09:20:02;;;;;;;;;8.00;7.00;;;;;27.83;39.57;100307.16;5009457;28;45505;-72
2022/08/14 09:22:29;;;;;;;;;6.67;6.00;;;;;27.92;39.67;100312.81;5013264;28;45515;-72
2022/08/14 09:24:55;;;;;;;;;6.00;6.00;;;;;28.03;40.00;100322.91;5007724;28;45481;-71
2022/08/14 09:27:20;;;;;;;;;7.00;7.00;;;;;28.09;39.91;100314.34;5010830;28;46390;-71
2022/08/14 09:29:46;;;;;;;;;5.33;5.33;;;;;28.12;39.88;100296.94;5012995;28;58910;-72
2022/08/14 09:32:15;;;;;;;;;10.33;5.67;;;;;28.26;39.74;100304.13;5014157;28;45493;-72
2022/08/14 09:35:19;;;;;;;;;5.67;5.33;;;;;28.35;39.76;100292.66;4985665;28;45589;-72
2022/08/14 09:38:06;;;;;;;;;8.00;7.00;;;;;28.43;39.69;100304.69;4946909;28;47444;-72
2022/08/14 09:40:32;;;;;;;;;5.67;5.67;;;;;28.50;39.35;100297.00;5011019;28;45490;-72
2022/08/14 09:43:18;;;;;;;;;8.33;6.33;;;;;28.53;39.25;100298.59;5012632;28;45776;-73
2022/08/14 09:45:46;;;;;;;;;8.00;6.00;;;;;28.58;39.10;100297.28;5011400;28;45566;-73
2022/08/14 09:48:17;;;;;;;;;5.33;5.33;;;;;28.66;39.19;100313.03;5014796;28;46417;-71
2022/08/14 09:50:49;;;;;;;;;5.00;5.00;;;;;28.66;39.01;100305.75;5014968;28;45445;-72
2022/08/14 09:53:18;;;;;;;;;6.00;6.00;;;;;28.68;38.94;100306.50;5012793;28;45856;-72
2022/08/14 09:55:43;;;;;;;;;6.00;3.00;;;;;28.71;39.35;100308.16;4997262;28;45573;-72
2022/08/14 09:58:16;;;;;;;;;6.00;5.00;;;;;28.76;39.46;100313.22;5008283;28;46493;-72
2022/08/14 10:00:46;;;;;;;;;6.33;4.33;;;;;28.80;39.51;100314.75;5014693;28;45467;-71
2022/08/14 10:03:11;;;;;;;;;5.67;4.33;;;;;28.83;39.58;100309.97;4998370;28;45654;-72
2022/08/14 10:05:38;;;;;;;;;4.67;4.67;;;;;28.86;39.72;100307.00;5012545;28;45482;-72
2022/08/14 10:08:04;;;;;;;;;5.00;5.00;;;;;28.99;39.72;100306.16;5014092;28;47277;-72
2022/08/14 10:10:38;;;;;;;;;4.33;4.00;;;;;29.08;39.83;100300.88;5014056;28;45461;-72
2022/08/14 10:13:23;;;;;;;;;6.33;4.67;;;;;29.14;39.93;100292.28;5009301;28;45579;-73
2022/08/14 10:15:50;;;;;;;;;8.00;5.67;;;;;29.21;39.63;100289.97;5015164;28;45529;-71
2022/08/14 10:18:20;;;;;;;;;7.00;7.00;;;;;29.33;39.75;100297.19;5015993;28;46530;-72
2022/08/14 10:21:00;;;;;;;;;5.00;5.00;;;;;29.46;39.28;100298.00;5016498;28;45598;-72
2022/08/14 10:23:28;;;;;;;;;2.67;2.67;;;;;29.57;39.78;100297.22;5012185;28;45220;-72
2022/08/14 10:26:04;;;;;;;;;7.00;6.67;;;;;29.67;38.92;100290.06;4998842;28;45535;-72
2022/08/14 10:28:38;;;;;;;;;4.33;3.67;;;;;29.73;39.00;100281.44;5016029;28;47459;-72
2022/08/14 10:31:24;;;;;;;;;5.00;4.33;;;;;29.78;39.10;100286.53;5014292;28;45345;-72
2022/08/14 10:33:59;;;;;;;;;5.33;4.00;;;;;29.69;38.52;100263.59;5016733;28;45300;-72
2022/08/14 10:36:32;;;;;;;;;5.00;5.00;;;;;29.75;38.96;100262.25;5009124;28;45506;-73
2022/08/14 10:39:00;;;;;;;;;4.67;3.67;;;;;29.91;38.92;100284.56;5014451;28;46405;-73
2022/08/14 10:41:40;;;;;;;;;4.00;4.00;;;;;29.95;38.79;100285.19;5005702;28;45478;-71
2022/08/14 10:44:17;;;;;;;;;5.00;3.33;;;;;29.96;38.91;100300.53;4997342;28;45225;-72
2022/08/14 10:47:04;;;;;;;;;4.00;4.00;;;;;29.96;38.17;100298.69;4996642;28;45311;-71
2022/08/14 10:49:30;;;;;;;;;5.33;4.67;;;;;29.97;38.06;100307.72;4992490;28;45852;-72
2022/08/14 10:52:05;;;;;;;;;4.33;4.33;;;;;29.98;38.28;100301.28;5010242;28;45279;-73
2022/08/14 10:54:41;;;;;;;;;4.33;4.33;;;;;30.00;38.20;100302.03;5016319;28;45443;-73
2022/08/14 10:57:14;;;;;;;;;5.00;5.00;;;;;30.09;38.71;100306.72;5014104;28;45473;-72
2022/08/14 10:59:55;;;;;;;;;7.00;5.00;;;;;30.08;37.86;100302.28;4996785;28;46895;-72
2022/08/14 11:02:33;;;;;;;;;6.67;5.00;;;;;30.09;38.46;100305.88;5003627;28;45545;-72
2022/08/14 11:05:10;;;;;;;;;6.33;4.00;;;;;30.10;38.01;100313.94;4996724;28;45446;-73
2022/08/14 11:07:40;;;;;;;;;6.33;4.00;;;;;30.09;38.65;100312.19;4999805;28;45905;-72
2022/08/14 11:10:09;;;;;;;;;5.67;5.67;;;;;30.09;38.43;100311.31;4994967;28;46645;-72
2022/08/14 11:12:46;;;;;;;;;4.33;4.33;;;;;30.07;38.13;100308.72;5002307;28;45411;-72
2022/08/14 11:15:29;;;;;;;;;4.00;4.00;;;;;30.06;38.13;100309.72;4996710;28;45406;-72
2022/08/14 11:17:55;;;;;;;;;6.00;6.00;;;;;30.04;37.92;100305.38;4996846;28;45369;-73
2022/08/14 11:20:22;;;;;;;;;5.00;3.67;;;;;30.03;37.98;100312.66;5005158;28;45515;-73
2022/08/14 11:22:51;;;;;;;;;4.67;4.67;;;;;30.01;38.39;100310.06;4996596;28;45370;-72
2022/08/14 11:25:19;;;;;;;;;4.33;4.33;;;;;29.96;38.02;100306.84;5010618;28;45295;-72
2022/08/14 11:27:46;;;;;;;;;5.00;5.00;;;;;29.92;37.94;100304.47;4998458;28;45524;-72
2022/08/14 11:30:18;;;;;;;;;5.00;5.00;;;;;29.93;38.33;100319.81;5015345;28;45441;-72
2022/08/14 11:32:47;;;;;;;;;5.67;4.00;;;;;29.91;38.63;100316.34;5015177;28;45311;-73
2022/08/14 11:35:33;;;;;;;;;8.00;6.33;;;;;29.95;38.43;100323.31;5015877;28;45394;-72
2022/08/14 11:38:02;;;;;;;;;5.00;5.00;;;;;29.91;38.79;100314.50;5012519;28;45577;-72
2022/08/14 11:40:33;;;;;;;;;7.67;6.33;;;;;29.86;38.63;100308.53;5011919;28;47107;-73
2022/08/14 11:43:00;;;;;;;;;5.67;3.00;;;;;29.91;39.26;100316.34;5013855;28;45361;-71
2022/08/14 11:45:31;;;;;;;;;8.00;4.00;;;;;29.86;39.02;100304.97;5012800;28;45556;-72